Time,TemperatureF,DewpointF,PressureIn,WindDirection,WindDirectionDegrees,WindSpeedMPH,WindSpeedGustMPH,Humidity,HourlyPrecipIn,Conditions,Clouds,dailyrainin,SoftwareType,DateUTC
2013-08-21 00:03:00,63.0,56.7,30.20,WSW,258,2.3,2.3,80,0.00,BKN,FEW,0.00,WeatherDisplay:10.37,2013-08-20 23:03:00,
2013-08-21 00:08:00,63.0,56.7,30.20,WSW,258,2.3,2.3,80,0.00,BKN,FEW,0.00,WeatherDisplay:10.37,2013-08-20 23:08:00,
2013-08-21 00:13:00,63.5,57.2,30.20,West,280,5.2,5.2,80,0.00,BKN,FEW,0.00,WeatherDisplay:10.37,2013-08-20 23:13:00,
2013-08-21 00:18:00,63.3,57.0,30.20,ESE,122,3.5,3.5,80,0.00,BKN,FEW,0.00,WeatherDisplay:10.37,2013-08-20 23:18:00,
2013-08-21 00:23:00,63.3,57.0,30.20,WSW,258,3.5,3.5,80,0.00,BKN,FEW,0.00,WeatherDisplay:10.37,2013-08-20 23:23:00,
2013-08-21 00:28:00,63.5,57.2,30.20,SE,145,4.6,4.6,80,0.00,BKN,FEW,0.00,WeatherDisplay:10.37,2013-08-20 23:28:00,
2013-08-21 00:33:00,63.5,57.2,30.20,WSW,258,3.5,3.5,80,0.00,BKN,FEW,0.00,WeatherDisplay:10.37,2013-08-20 23:33:00,
2013-08-21 00:38:00,63.3,57.0,30.19,SSE,168,3.5,3.5,80,0.00,BKN,FEW,0.00,WeatherDisplay:10.37,2013-08-20 23:38:00,
2013-08-21 00:43:00,63.5,57.2,30.19,SE,145,0.0,1.4,80,0.00,BKN,FEW,0.00,WeatherDisplay:10.37,2013-08-20 23:43:00,
2013-08-21 00:48:00,63.5,57.2,30.19,ESE,122,3.9,3.9,80,0.00,BKN,FEW,0.00,WeatherDisplay:10.37,2013-08-20 23:48:00,
2013-08-21 00:53:00,63.1,56.9,30.19,ESE,122,1.2,1.3,80,0.00,BKN,FEW,0.00,WeatherDisplay:10.37,2013-08-20 23:53:00,
2013-08-21 16:07:00,72.1,59.7,30.22,ESE,122,6.9,6.9,65,0.00,CLR,FEW,0.00,WeatherDisplay:10.37,2013-08-21 15:07:00,
2013-08-21 16:08:00,72.1,59.7,30.22,ESE,122,6.9,6.9,65,0.00,CLR,FEW,0.00,WeatherDisplay:10.37,2013-08-21 15:08:00,
2013-08-21 16:13:00,72.1,59.7,30.19,WSW,258,10.4,10.4,65,0.00,BKN,FEW,0.00,WeatherDisplay:10.37,2013-08-21 15:13:00,
2013-08-21 16:18:00,72.1,59.7,30.19,ESE,122,4.6,6.5,65,0.00,BKN,FEW,0.00,WeatherDisplay:10.37,2013-08-21 15:18:00,
2013-08-21 16:23:00,72.3,59.9,30.19,SSW,212,5.8,6.8,65,0.00,BKN,FEW,0.00,WeatherDisplay:10.37,2013-08-21 15:23:00,
2013-08-21 16:28:00,72.1,59.3,30.19,SE,145,11.5,11.5,64,0.00,BKN,FEW,0.00,WeatherDisplay:10.37,2013-08-21 15:28:00,
2013-08-21 16:33:00,72.0,59.6,30.19,ESE,122,9.2,9.2,65,0.00,BKN,FEW,0.00,WeatherDisplay:10.37,2013-08-21 15:33:00,
2013-08-21 16:38:00,72.1,59.7,30.19,WSW,258,11.7,11.7,65,0.00,BKN,FEW,0.00,WeatherDisplay:10.37,2013-08-21 15:38:00,
2013-08-21 16:43:00,71.8,58.9,30.19,WSW,258,8.1,8.1,64,0.00,BKN,FEW,0.00,WeatherDisplay:10.37,2013-08-21 15:43:00,
2013-08-21 16:48:00,72.0,59.1,30.19,WSW,258,12.7,12.7,64,0.00,BKN,FEW,0.00,WeatherDisplay:10.37,2013-08-21 15:48:00,
2013-08-21 16:53:00,72.1,59.3,30.19,WSW,258,10.6,10.6,64,0.00,BKN,FEW,0.00,WeatherDisplay:10.37,2013-08-21 15:53:00,
2013-08-21 16:58:00,72.3,59.5,30.19,WSW,258,8.1,8.1,64,0.00,BKN,FEW,0.00,WeatherDisplay:10.37,2013-08-21 15:58:00,
2013-08-21 17:03:00,72.5,59.6,30.19,WSW,258,12.7,12.7,64,0.00,BKN,FEW,0.00,WeatherDisplay:10.37,2013-08-21 16:03:00,
2013-08-21 17:08:00,72.3,59.9,30.19,WSW,258,10.4,10.4,65,0.00,BKN,FEW,0.00,WeatherDisplay:10.37,2013-08-21 16:08:00,
2013-08-21 17:13:00,72.1,59.3,30.19,WSW,258,9.2,9.2,64,0.00,BKN,FEW,0.00,WeatherDisplay:10.37,2013-08-21 16:13:00,
2013-08-21 17:18:00,72.1,59.7,30.19,West,280,5.8,5.8,65,0.00,BKN,FEW,0.00,WeatherDisplay:10.37,2013-08-21 16:18:00,
2013-08-21 17:23:00,72.1,59.3,30.19,WSW,258,11.7,11.7,64,0.00,BKN,FEW,0.00,WeatherDisplay:10.37,2013-08-21 16:23:00,
2013-08-21 17:28:00,72.1,59.7,30.19,WSW,258,10.4,10.4,65,0.00,BKN,FEW,0.00,WeatherDisplay:10.37,2013-08-21 16:28:00,
2013-08-21 17:33:00,72.1,59.7,30.19,West,280,9.2,9.2,65,0.00,BKN,FEW,0.00,WeatherDisplay:10.37,2013-08-21 16:33:00,
2013-08-21 17:38:00,72.1,59.7,30.20,WSW,258,5.8,6.5,65,0.00,BKN,FEW,0.00,WeatherDisplay:10.37,2013-08-21 16:38:00,
2013-08-21 17:43:00,72.1,59.7,30.20,WSW,258,10.9,10.9,65,0.00,BKN,FEW,0.00,WeatherDisplay:10.37,2013-08-21 16:43:00,
2013-08-21 17:48:00,71.8,59.4,30.20,West,280,10.4,10.4,65,0.00,BKN,FEW,0.00,WeatherDisplay:10.37,2013-08-21 16:48:00,
2013-08-21 17:53:00,71.6,59.6,30.20,WSW,258,4.6,5.6,66,0.00,BKN,FEW,0.00,WeatherDisplay:10.37,2013-08-21 16:53:00,
2013-08-21 17:58:00,72.0,59.6,30.19,WSW,258,11.5,11.5,65,0.00,BKN,FEW,0.00,WeatherDisplay:10.37,2013-08-21 16:58:00,
2013-08-21 18:03:00,72.1,59.7,30.19,West,280,8.3,8.3,65,0.00,BKN,FEW,0.00,WeatherDisplay:10.37,2013-08-21 17:03:00,
2013-08-21 18:08:00,71.8,59.4,30.19,WSW,258,9.2,9.2,65,0.00,BKN,FEW,0.00,WeatherDisplay:10.37,2013-08-21 17:08:00,
2013-08-21 18:13:00,71.6,59.6,30.19,WSW,258,6.9,6.9,66,0.00,BKN,FEW,0.00,WeatherDisplay:10.37,2013-08-21 17:13:00,
2013-08-21 18:18:00,71.8,59.8,30.19,WSW,258,6.9,6.9,66,0.00,BKN,FEW,0.00,WeatherDisplay:10.37,2013-08-21 17:18:00,
2013-08-21 18:23:00,71.6,59.6,30.19,WSW,258,8.1,8.1,66,0.00,BKN,FEW,0.00,WeatherDisplay:10.37,2013-08-21 17:23:00,
2013-08-21 18:28:00,71.4,59.5,30.19,ESE,122,5.8,5.8,66,0.00,BKN,FEW,0.00,WeatherDisplay:10.37,2013-08-21 17:28:00,
2013-08-21 18:33:00,71.1,60.0,30.19,ESE,122,6.9,6.9,68,0.00,BKN,FEW,0.00,WeatherDisplay:10.37,2013-08-21 17:33:00,
2013-08-21 18:38:00,71.1,60.0,30.19,WSW,258,8.1,8.1,68,0.00,BKN,FEW,0.00,WeatherDisplay:10.37,2013-08-21 17:38:00,
2013-08-21 18:43:00,70.9,60.2,30.19,SE,145,8.1,8.1,69,0.00,BKN,FEW,0.00,WeatherDisplay:10.37,2013-08-21 17:43:00,
2013-08-21 18:48:00,70.7,60.0,30.19,WSW,258,6.9,6.9,69,0.00,BKN,FEW,0.00,WeatherDisplay:10.37,2013-08-21 17:48:00,
2013-08-21 18:53:00,70.7,60.0,30.19,West,280,5.8,5.8,69,0.00,BKN,FEW,0.00,WeatherDisplay:10.37,2013-08-21 17:53:00,
2013-08-21 18:58:00,70.5,60.3,30.19,ESE,122,4.6,4.6,70,0.00,BKN,FEW,0.00,WeatherDisplay:10.37,2013-08-21 17:58:00,
2013-08-21 19:03:00,70.0,59.7,30.19,ESE,122,6.9,6.9,70,0.00,BKN,FEW,0.00,WeatherDisplay:10.37,2013-08-21 18:03:00,
2013-08-21 19:08:00,70.0,59.7,30.19,WSW,258,5.8,5.8,70,0.00,BKN,FEW,0.00,WeatherDisplay:10.37,2013-08-21 18:08:00,
2013-08-21 19:13:00,69.4,59.6,30.19,West,280,5.8,5.8,71,0.00,BKN,FEW,0.00,WeatherDisplay:10.37,2013-08-21 18:13:00,
2013-08-21 19:18:00,69.4,59.6,30.19,West,280,6.0,6.0,71,0.00,BKN,FEW,0.00,WeatherDisplay:10.37,2013-08-21 18:18:00,
2013-08-21 19:23:00,69.1,59.3,30.19,SE,145,8.1,8.1,71,0.00,BKN,FEW,0.00,WeatherDisplay:10.37,2013-08-21 18:23:00,
2013-08-21 19:28:00,69.3,59.5,30.19,WSW,258,8.1,8.1,71,0.00,BKN,FEW,0.00,WeatherDisplay:10.37,2013-08-21 18:28:00,
2013-08-21 19:33:00,68.9,59.5,30.19,WSW,258,4.6,4.6,72,0.00,BKN,FEW,0.00,WeatherDisplay:10.37,2013-08-21 18:33:00,
2013-08-21 19:38:00,68.9,59.5,30.18,WSW,258,6.9,6.9,72,0.00,BKN,FEW,0.00,WeatherDisplay:10.37,2013-08-21 18:38:00,
2013-08-21 19:43:00,68.7,59.3,30.18,WSW,258,4.6,4.6,72,0.00,BKN,FEW,0.00,WeatherDisplay:10.37,2013-08-21 18:43:00,
2013-08-21 19:48:00,68.5,59.2,30.18,SE,145,4.6,4.6,72,0.00,BKN,FEW,0.00,WeatherDisplay:10.37,2013-08-21 18:48:00,
2013-08-21 19:53:00,68.5,59.5,30.18,WSW,258,6.9,6.9,73,0.00,BKN,FEW,0.00,WeatherDisplay:10.37,2013-08-21 18:53:00,
2013-08-21 19:58:00,68.4,59.4,30.18,WSW,258,4.6,4.6,73,0.00,BKN,FEW,0.00,WeatherDisplay:10.37,2013-08-21 18:58:00,
2013-08-21 20:03:00,68.2,59.2,30.18,WSW,258,8.1,8.1,73,0.00,BKN,FEW,0.00,WeatherDisplay:10.37,2013-08-21 19:03:00,
2013-08-21 20:08:00,68.0,59.0,30.18,WSW,258,6.9,6.9,73,0.00,BKN,FEW,0.00,WeatherDisplay:10.37,2013-08-21 19:08:00,
2013-08-21 20:13:00,68.0,59.0,30.18,WSW,258,6.0,6.0,73,0.00,BKN,FEW,0.00,WeatherDisplay:10.37,2013-08-21 19:13:00,
2013-08-21 20:18:00,67.8,58.8,30.18,ESE,122,2.8,5.8,73,0.00,BKN,FEW,0.00,WeatherDisplay:10.37,2013-08-21 19:18:00,
2013-08-21 20:23:00,67.8,58.8,30.18,WSW,258,5.8,5.8,73,0.00,BKN,FEW,0.00,WeatherDisplay:10.37,2013-08-21 19:23:00,
2013-08-21 20:28:00,67.5,58.5,30.18,SE,145,4.6,5.0,73,0.00,BKN,FEW,0.00,WeatherDisplay:10.37,2013-08-21 19:28:00,
2013-08-21 20:33:00,67.5,58.9,30.18,WSW,258,8.1,8.1,74,0.00,BKN,FEW,0.00,WeatherDisplay:10.37,2013-08-21 19:33:00,
2013-08-21 20:38:00,67.3,58.7,30.18,WSW,258,8.5,8.5,74,0.00,BKN,FEW,0.00,WeatherDisplay:10.37,2013-08-21 19:38:00,
2013-08-21 20:43:00,67.1,58.5,30.18,WSW,258,5.8,5.8,74,0.00,BKN,FEW,0.00,WeatherDisplay:10.37,2013-08-21 19:43:00,
2013-08-21 20:48:00,67.1,58.9,30.18,West,280,5.8,5.8,75,0.00,BKN,FEW,0.00,WeatherDisplay:10.37,2013-08-21 19:48:00,
2013-08-21 20:53:00,67.1,58.9,30.18,WSW,258,6.9,6.9,75,0.00,BKN,FEW,0.00,WeatherDisplay:10.37,2013-08-21 19:53:00,
2013-08-21 20:58:00,66.7,58.6,30.18,ESE,122,5.8,5.8,75,0.00,BKN,FEW,0.00,WeatherDisplay:10.37,2013-08-21 19:58:00,
2013-08-21 21:03:00,66.6,58.4,30.18,WSW,258,2.3,4.1,75,0.00,BKN,FEW,0.00,WeatherDisplay:10.37,2013-08-21 20:03:00,
2013-08-21 21:09:00,66.6,58.4,30.18,SSE,168,3.5,3.6,75,0.00,BKN,FEW,0.00,WeatherDisplay:10.37,2013-08-21 20:09:00,
2013-08-21 21:14:00,66.7,58.6,30.18,West,280,5.8,5.8,75,0.00,BKN,FEW,0.00,WeatherDisplay:10.37,2013-08-21 20:14:00,
2013-08-21 21:19:00,66.7,58.6,30.19,West,280,4.6,4.6,75,0.00,BKN,FEW,0.00,WeatherDisplay:10.37,2013-08-21 20:19:00,
2013-08-21 21:24:00,66.4,58.2,30.19,ESE,122,4.6,4.6,75,0.00,BKN,FEW,0.00,WeatherDisplay:10.37,2013-08-21 20:24:00,
2013-08-21 21:29:00,66.4,58.2,30.19,West,280,5.8,5.8,75,0.00,BKN,FEW,0.00,WeatherDisplay:10.37,2013-08-21 20:29:00,
2013-08-21 21:34:00,66.4,58.2,30.19,ESE,122,5.8,5.8,75,0.00,BKN,FEW,0.00,WeatherDisplay:10.37,2013-08-21 20:34:00,
2013-08-21 21:39:00,66.4,58.2,30.19,West,280,2.3,3.3,75,0.00,BKN,FEW,0.00,WeatherDisplay:10.37,2013-08-21 20:39:00,
2013-08-21 21:44:00,66.0,58.2,30.19,WSW,258,6.9,6.9,76,0.00,BKN,FEW,0.00,WeatherDisplay:10.37,2013-08-21 20:44:00,
2013-08-21 21:49:00,66.0,58.2,30.19,ESE,122,6.0,6.0,76,0.00,BKN,FEW,0.00,WeatherDisplay:10.37,2013-08-21 20:49:00,
2013-08-21 21:54:00,65.8,58.1,30.19,SE,145,4.8,4.8,76,0.00,BKN,FEW,0.00,WeatherDisplay:10.37,2013-08-21 20:54:00,
2013-08-21 21:59:00,65.8,58.1,30.18,ESE,122,3.5,3.7,76,0.00,BKN,FEW,0.00,WeatherDisplay:10.37,2013-08-21 20:59:00,
2013-08-21 22:04:00,65.8,58.4,30.18,WSW,258,6.0,6.0,77,0.00,BKN,FEW,0.00,WeatherDisplay:10.37,2013-08-21 21:04:00,
2013-08-21 22:09:00,65.7,58.3,30.18,West,280,5.8,5.8,77,0.00,BKN,FEW,0.00,WeatherDisplay:10.37,2013-08-21 21:09:00,
2013-08-21 22:14:00,65.7,58.6,30.18,West,280,6.9,6.9,78,0.00,BKN,FEW,0.00,WeatherDisplay:10.37,2013-08-21 21:14:00,
2013-08-21 22:19:00,65.3,58.3,30.18,NW,325,4.6,4.6,78,0.00,BKN,FEW,0.00,WeatherDisplay:10.37,2013-08-21 21:19:00,
2013-08-21 22:24:00,65.1,58.4,30.18,WSW,258,5.8,5.8,79,0.00,BKN,FEW,0.00,WeatherDisplay:10.37,2013-08-21 21:24:00,
2013-08-21 22:29:00,65.1,58.4,30.18,West,280,3.5,4.0,79,0.00,BKN,FEW,0.00,WeatherDisplay:10.37,2013-08-21 21:29:00,
2013-08-21 22:34:00,64.9,58.3,30.18,WSW,258,5.8,5.8,79,0.00,BKN,FEW,0.00,WeatherDisplay:10.37,2013-08-21 21:34:00,
2013-08-21 22:39:00,64.9,58.3,30.18,WSW,258,5.8,5.8,79,0.00,BKN,FEW,0.00,WeatherDisplay:10.37,2013-08-21 21:39:00,
2013-08-21 22:44:00,64.8,58.1,30.18,WSW,258,3.5,3.5,79,0.00,BKN,FEW,0.00,WeatherDisplay:10.37,2013-08-21 21:44:00,
2013-08-21 22:49:00,64.9,58.3,30.18,WSW,258,4.6,4.6,79,0.00,BKN,FEW,0.00,WeatherDisplay:10.37,2013-08-21 21:49:00,
2013-08-21 22:54:00,64.6,57.9,30.18,WSW,258,5.8,5.8,79,0.00,BKN,FEW,0.00,WeatherDisplay:10.37,2013-08-21 21:54:00,
2013-08-21 22:59:00,64.6,57.9,30.17,WSW,258,3.5,3.5,79,0.00,BKN,FEW,0.00,WeatherDisplay:10.37,2013-08-21 21:59:00,
2013-08-21 23:04:00,64.4,57.7,30.17,WSW,258,9.2,9.2,79,0.00,BKN,FEW,0.00,WeatherDisplay:10.37,2013-08-21 22:04:00,
2013-08-21 23:09:00,64.4,57.7,30.17,WSW,258,5.8,5.8,79,0.00,BKN,FEW,0.00,WeatherDisplay:10.37,2013-08-21 22:09:00,
2013-08-21 23:14:00,64.4,57.7,30.17,WSW,258,5.8,5.8,79,0.00,BKN,FEW,0.00,WeatherDisplay:10.37,2013-08-21 22:14:00,
2013-08-21 23:19:00,64.2,57.6,30.17,WSW,258,5.0,5.0,79,0.00,BKN,FEW,0.00,WeatherDisplay:10.37,2013-08-21 22:19:00,
2013-08-21 23:24:00,64.0,57.7,30.17,WSW,258,3.5,3.5,80,0.00,BKN,FEW,0.00,WeatherDisplay:10.37,2013-08-21 22:24:00,
2013-08-21 23:29:00,64.2,57.9,30.17,WSW,258,9.2,9.2,80,0.00,BKN,FEW,0.00,WeatherDisplay:10.37,2013-08-21 22:29:00,
2013-08-21 23:34:00,64.0,57.7,30.17,ESE,122,8.1,8.1,80,0.00,BKN,FEW,0.00,WeatherDisplay:10.37,2013-08-21 22:34:00,
2013-08-21 23:39:00,63.9,57.6,30.17,WSW,258,5.8,5.8,80,0.00,BKN,FEW,0.00,WeatherDisplay:10.37,2013-08-21 22:39:00,
2013-08-21 23:44:00,63.7,57.4,30.17,WSW,258,8.1,8.1,80,0.00,BKN,FEW,0.00,WeatherDisplay:10.37,2013-08-21 22:44:00,
2013-08-21 23:49:00,63.9,57.6,30.17,WSW,258,10.4,10.4,80,0.00,BKN,FEW,0.00,WeatherDisplay:10.37,2013-08-21 22:49:00,
2013-08-21 23:54:00,63.5,57.6,30.17,ESE,122,6.9,6.9,81,0.00,BKN,FEW,0.00,WeatherDisplay:10.37,2013-08-21 22:54:00,
2013-08-21 23:59:00,63.5,57.6,30.17,NW,325,4.6,4.6,81,0.00,BKN,FEW,0.00,WeatherDisplay:10.37,2013-08-21 22:59:00,